createdAt,value
2023-01-11T00:01:03.867Z,100.00
2023-01-11T00:03:31.303Z,100.00
2023-01-11T00:05:59.125Z,100.00
2023-01-11T00:08:28.845Z,100.00
2023-01-11T00:10:55.725Z,100.00
2023-01-11T00:13:22.328Z,100.00
2023-01-11T00:15:48.848Z,100.00
2023-01-11T00:18:15.346Z,100.00
2023-01-11T00:20:41.831Z,100.00
2023-01-11T00:23:08.638Z,100.00
2023-01-11T00:25:35.745Z,100.00
2023-01-11T00:28:02.233Z,100.00
2023-01-11T00:30:28.722Z,100.00
2023-01-11T00:32:59.663Z,100.00
2023-01-11T00:35:27.303Z,100.00
2023-01-11T00:37:54.396Z,100.00
2023-01-11T00:40:21.678Z,100.00
2023-01-11T00:43:06.677Z,100.00
2023-01-11T00:45:51.936Z,100.00
2023-01-11T00:48:18.525Z,100.00
2023-01-11T00:50:44.994Z,100.00
2023-01-11T00:53:11.655Z,100.00
2023-01-11T00:55:38.248Z,100.00
2023-01-11T00:58:04.948Z,100.00
2023-01-11T01:00:31.503Z,100.00
2023-01-11T01:02:58.031Z,100.00
2023-01-11T01:05:24.850Z,100.00
2023-01-11T01:07:51.581Z,100.00
2023-01-11T01:10:19.362Z,100.00
2023-01-11T01:13:04.989Z,100.00
2023-01-11T01:15:32.321Z,100.00
2023-01-11T01:17:58.855Z,100.00
2023-01-11T01:20:25.612Z,100.00
2023-01-11T01:22:52.204Z,100.00
2023-01-11T01:25:18.704Z,100.00
2023-01-11T01:27:45.169Z,100.00
2023-01-11T01:30:12.140Z,100.00
2023-01-11T01:32:39.337Z,100.00
2023-01-11T01:35:06.241Z,100.00
2023-01-11T01:37:32.722Z,100.00
2023-01-11T01:39:59.234Z,100.00
2023-01-11T01:42:25.758Z,100.00
2023-01-11T01:45:00.010Z,100.00
2023-01-11T01:47:46.571Z,100.00
2023-01-11T01:50:23.132Z,100.00
2023-01-11T01:52:53.372Z,100.00
2023-01-11T01:55:28.680Z,100.00
2023-01-11T01:57:57.732Z,100.00
2023-01-11T02:00:24.477Z,100.00
2023-01-11T02:02:51.139Z,100.00
2023-01-11T02:05:18.478Z,100.00
2023-01-11T02:07:45.936Z,100.00
2023-01-11T02:10:20.424Z,100.00
2023-01-11T02:12:59.401Z,100.00
2023-01-11T02:15:26.002Z,100.00
2023-01-11T02:17:52.487Z,100.00
2023-01-11T02:20:18.891Z,100.00
2023-01-11T02:23:03.558Z,100.00
2023-01-11T02:26:07.693Z,100.00
2023-01-11T02:28:46.708Z,100.00
2023-01-11T02:31:23.169Z,100.00
2023-01-11T02:34:21.316Z,100.00
2023-01-11T02:37:33.969Z,100.00
2023-01-11T02:40:07.219Z,100.00
2023-01-11T02:43:06.359Z,100.00
2023-01-11T02:46:10.438Z,100.00
2023-01-11T02:48:47.598Z,100.00
2023-01-11T02:51:22.117Z,100.00
2023-01-11T02:54:18.510Z,100.00
2023-01-11T02:56:48.574Z,100.00
2023-01-11T02:59:22.017Z,100.00
2023-01-11T03:01:55.471Z,100.00
2023-01-11T03:04:22.810Z,100.00
2023-01-11T03:06:52.114Z,100.00
2023-01-11T03:09:36.092Z,100.00
2023-01-11T03:12:55.168Z,100.00
2023-01-11T03:15:56.832Z,100.00
2023-01-11T03:18:37.744Z,100.00
2023-01-11T03:21:09.484Z,100.00
2023-01-11T03:23:54.584Z,100.00
2023-01-11T03:26:35.365Z,100.00
2023-01-11T03:29:15.560Z,100.00
2023-01-11T03:31:53.741Z,100.00
2023-01-11T03:34:29.248Z,100.00
2023-01-11T03:37:16.393Z,100.00
2023-01-11T03:39:47.860Z,100.00
2023-01-11T03:42:20.156Z,100.00
2023-01-11T03:44:51.770Z,100.00
2023-01-11T03:47:22.000Z,100.00
2023-01-11T03:49:56.527Z,100.00
2023-01-11T03:52:28.444Z,100.00
2023-01-11T03:54:55.877Z,100.00
2023-01-11T03:57:26.071Z,100.00
2023-01-11T03:59:53.354Z,100.00
2023-01-11T04:02:27.456Z,100.00
2023-01-11T04:04:54.374Z,100.00
2023-01-11T04:07:20.953Z,100.00
2023-01-11T04:09:47.470Z,100.00
2023-01-11T04:12:13.940Z,100.00
2023-01-11T04:14:40.413Z,100.00
2023-01-11T04:17:06.910Z,100.00
2023-01-11T04:19:33.399Z,100.00
2023-01-11T04:21:59.982Z,100.00
2023-01-11T04:24:26.486Z,100.00
2023-01-11T04:26:53.015Z,100.00
2023-01-11T04:29:19.492Z,100.00
2023-01-11T04:31:46.020Z,100.00
2023-01-11T04:34:12.624Z,100.00
2023-01-11T04:36:39.154Z,100.00
2023-01-11T04:39:06.421Z,100.00
2023-01-11T04:41:51.231Z,100.00
2023-01-11T04:44:17.691Z,100.00
2023-01-11T04:46:44.180Z,100.00
2023-01-11T04:49:10.661Z,100.00
2023-01-11T04:51:37.171Z,100.00
2023-01-11T04:54:03.705Z,100.00
2023-01-11T04:56:30.323Z,100.00
2023-01-11T04:58:56.839Z,100.00
2023-01-11T05:01:23.383Z,100.00
2023-01-11T05:03:51.144Z,100.00
2023-01-11T05:06:25.740Z,100.00
2023-01-11T05:08:52.329Z,100.00
2023-01-11T05:11:18.899Z,100.00
2023-01-11T05:13:45.525Z,100.00
2023-01-11T05:16:12.061Z,100.00
2023-01-11T05:18:43.455Z,100.00
2023-01-11T05:21:12.790Z,100.00
2023-01-11T05:23:40.430Z,100.00
2023-01-11T05:26:09.881Z,100.00
2023-01-11T05:28:36.369Z,100.00
2023-01-11T05:31:03.084Z,100.00
2023-01-11T05:33:29.637Z,100.00
2023-01-11T05:36:12.681Z,100.00
2023-01-11T05:38:39.242Z,100.00
2023-01-11T05:41:08.194Z,100.00
2023-01-11T05:43:58.532Z,100.00
2023-01-11T05:46:26.505Z,100.00
2023-01-11T05:48:54.678Z,100.00
2023-01-11T05:51:21.403Z,100.00
2023-01-11T05:53:48.018Z,100.00
2023-01-11T05:56:14.541Z,100.00
2023-01-11T05:58:41.088Z,100.00
2023-01-11T06:01:07.704Z,100.00
2023-01-11T06:03:34.257Z,100.00
2023-01-11T06:06:00.863Z,100.00
2023-01-11T06:08:27.325Z,100.00
2023-01-11T06:10:55.204Z,100.00
2023-01-11T06:13:27.849Z,100.00
2023-01-11T06:15:55.124Z,100.00
2023-01-11T06:18:21.938Z,100.00
2023-01-11T06:20:53.012Z,100.00
2023-01-11T06:23:20.027Z,100.00
2023-01-11T06:25:46.988Z,100.00
2023-01-11T06:28:14.009Z,100.00
2023-01-11T06:30:41.197Z,100.00
2023-01-11T06:33:08.769Z,100.00
2023-01-11T06:35:40.845Z,100.00
2023-01-11T06:38:10.480Z,100.00
2023-01-11T06:40:38.549Z,100.00
2023-01-11T06:43:05.983Z,100.00
2023-01-11T06:45:32.873Z,100.00
2023-01-11T06:47:59.928Z,100.00
2023-01-11T06:50:27.057Z,100.00
2023-01-11T06:53:01.881Z,100.00
2023-01-11T06:55:28.753Z,100.00
2023-01-11T06:57:55.315Z,100.00
2023-01-11T07:00:21.916Z,100.00
2023-01-11T07:02:48.950Z,100.00
2023-01-11T07:05:18.884Z,100.00
2023-01-11T07:07:45.763Z,100.00
2023-01-11T07:10:15.007Z,100.00
2023-01-11T07:12:42.099Z,100.00
2023-01-11T07:15:10.184Z,100.00
2023-01-11T07:17:37.321Z,100.00
2023-01-11T07:20:05.273Z,100.00
2023-01-11T07:22:36.582Z,100.00
2023-01-11T07:25:04.582Z,100.00
2023-01-11T07:27:31.395Z,100.00
2023-01-11T07:29:59.826Z,100.00
2023-01-11T07:32:27.787Z,100.00
2023-01-11T07:34:55.451Z,100.00
2023-01-11T07:37:28.243Z,100.00
2023-01-11T07:39:55.724Z,100.00
2023-01-11T07:42:40.843Z,100.00
2023-01-11T07:45:08.077Z,100.00
2023-01-11T07:47:34.639Z,100.00
2023-01-11T07:50:01.189Z,100.00
2023-01-11T07:52:27.701Z,100.00
2023-01-11T07:54:54.300Z,100.00
2023-01-11T07:57:20.881Z,100.00
2023-01-11T07:59:47.416Z,100.00
2023-01-11T08:02:14.047Z,100.00
2023-01-11T08:04:40.634Z,100.00
2023-01-11T08:07:07.168Z,100.00
2023-01-11T08:09:33.692Z,100.00
2023-01-11T08:12:18.620Z,100.00
2023-01-11T08:14:45.186Z,100.00
2023-01-11T08:17:14.905Z,100.00
2023-01-11T08:19:42.115Z,100.00
2023-01-11T08:22:09.752Z,100.00
2023-01-11T08:24:36.523Z,100.00
2023-01-11T08:27:04.273Z,100.00
2023-01-11T08:29:31.607Z,100.00
2023-01-11T08:31:59.404Z,100.00
2023-01-11T08:34:27.573Z,100.00
2023-01-11T08:36:55.591Z,100.00
2023-01-11T08:39:22.320Z,100.00
2023-01-11T08:41:48.799Z,100.00
2023-01-11T08:44:22.279Z,100.00
2023-01-11T08:46:59.596Z,100.00
2023-01-11T08:49:26.245Z,100.00
2023-01-11T08:51:52.737Z,100.00
2023-01-11T08:54:19.235Z,100.00
2023-01-11T08:56:45.783Z,100.00
2023-01-11T08:59:12.392Z,100.00
2023-01-11T09:01:39.221Z,100.00
2023-01-11T09:04:19.115Z,100.00
2023-01-11T09:06:49.827Z,100.00
2023-01-11T09:09:16.896Z,100.00
2023-01-11T09:11:56.956Z,100.00
2023-01-11T09:14:25.339Z,100.00
2023-01-11T09:16:53.010Z,100.00
2023-01-11T09:19:20.220Z,100.00
2023-01-11T09:21:46.899Z,100.00
2023-01-11T09:24:14.019Z,100.00
2023-01-11T09:26:43.312Z,100.00
2023-01-11T09:29:11.373Z,100.00
2023-01-11T09:31:38.344Z,100.00
2023-01-11T09:34:06.858Z,100.00
2023-01-11T09:36:35.780Z,100.00
2023-01-11T09:39:06.215Z,100.00
2023-01-11T09:41:44.849Z,100.00
2023-01-11T09:44:21.207Z,100.00
2023-01-11T09:46:51.629Z,100.00
2023-01-11T09:49:27.953Z,100.00
2023-01-11T09:52:09.631Z,100.00
2023-01-11T09:54:36.663Z,100.00
2023-01-11T09:57:18.263Z,100.00
2023-01-11T09:59:56.816Z,100.00
2023-01-11T10:02:52.206Z,100.00
2023-01-11T10:05:34.798Z,100.00
2023-01-11T10:18:27.371Z,100.00
2023-01-11T10:18:32.084Z,100.00
2023-01-11T10:21:13.245Z,100.00
2023-01-11T10:23:49.545Z,100.00
2023-01-11T10:26:32.406Z,100.00
2023-01-11T10:29:22.196Z,100.00
2023-01-11T10:32:02.389Z,100.00
2023-01-11T10:34:56.180Z,100.00
2023-01-11T10:37:50.168Z,100.00
2023-01-11T10:40:39.714Z,100.00
2023-01-11T10:43:21.858Z,99.93
2023-01-11T10:45:52.722Z,99.56
2023-01-11T10:48:38.580Z,98.97
2023-01-11T10:51:05.134Z,99.00
2023-01-11T10:53:41.036Z,99.06
2023-01-11T10:56:42.538Z,99.03
2023-01-11T10:59:31.642Z,98.06
2023-01-11T11:02:01.044Z,97.94
2023-01-11T11:04:42.567Z,97.29
2023-01-11T11:07:21.108Z,98.04
2023-01-11T11:10:03.352Z,97.06
2023-01-11T11:12:37.317Z,96.51
2023-01-11T11:15:31.599Z,96.14
2023-01-11T11:17:58.305Z,96.08
2023-01-11T11:20:30.035Z,96.28
2023-01-11T11:22:57.536Z,95.52
2023-01-11T11:25:37.472Z,95.32
2023-01-11T11:28:23.914Z,92.72
2023-01-11T11:30:54.655Z,91.80
2023-01-11T11:33:40.961Z,92.74
2023-01-11T11:36:10.008Z,91.46
2023-01-11T11:39:01.357Z,91.53
2023-01-11T11:41:27.922Z,91.80
2023-01-11T11:44:14.224Z,90.88
2023-01-11T11:46:40.777Z,90.55
2023-01-11T11:49:15.714Z,90.67
2023-01-11T11:51:45.392Z,90.61
2023-01-11T11:54:29.743Z,90.06
2023-01-11T11:56:58.858Z,89.26
2023-01-11T11:59:29.721Z,89.04
2023-01-11T12:02:00.539Z,90.00
2023-01-11T12:04:53.598Z,88.72
2023-01-11T12:07:33.119Z,86.63
2023-01-11T12:10:05.569Z,86.03
2023-01-11T12:12:35.873Z,87.65
2023-01-11T12:15:08.532Z,87.57
2023-01-11T12:17:35.314Z,85.83
2023-01-11T12:20:01.834Z,83.93
2023-01-11T12:22:29.090Z,85.36
2023-01-11T12:25:15.554Z,84.44
2023-01-11T12:28:18.854Z,85.66
2023-01-11T12:31:02.606Z,85.12
2023-01-11T12:33:48.001Z,85.30
2023-01-11T12:36:29.947Z,84.02
2023-01-11T12:39:14.860Z,83.00
2023-01-11T12:42:14.383Z,82.64
2023-01-11T12:44:58.196Z,81.80
2023-01-11T12:48:18.507Z,82.93
2023-01-11T12:50:58.345Z,80.72
2023-01-11T12:53:45.910Z,81.62
2023-01-11T12:56:47.393Z,81.46
2023-01-11T12:59:54.454Z,82.15
2023-01-11T13:03:08.378Z,81.04
2023-01-11T13:06:01.609Z,80.70
2023-01-11T13:08:58.848Z,81.52
2023-01-11T13:11:43.337Z,80.26
2023-01-11T13:14:44.240Z,81.01
2023-01-11T13:17:22.671Z,81.01
2023-01-11T13:20:04.380Z,80.84
2023-01-11T13:22:36.378Z,81.07
2023-01-11T13:25:12.408Z,81.78
2023-01-11T13:27:40.054Z,81.97
2023-01-11T13:30:12.468Z,83.09
2023-01-11T13:32:43.022Z,81.45
2023-01-11T13:35:19.222Z,82.57
2023-01-11T13:38:13.536Z,81.75
2023-01-11T13:40:47.124Z,78.84
2023-01-11T13:43:21.020Z,79.48
2023-01-11T13:46:15.601Z,80.52
2023-01-11T13:48:49.166Z,80.22
2023-01-11T13:51:27.592Z,79.27
2023-01-11T13:54:05.575Z,79.75
2023-01-11T13:56:36.164Z,79.42
2023-01-11T13:59:13.937Z,79.32
2023-01-11T14:01:56.547Z,79.65
2023-01-11T14:04:46.777Z,80.59
2023-01-11T14:08:00.654Z,80.03
2023-01-11T14:10:56.082Z,79.71
2023-01-11T14:13:53.025Z,79.72
2023-01-11T14:16:29.866Z,79.68
2023-01-11T14:19:08.619Z,79.98
2023-01-11T14:21:59.527Z,80.28
2023-01-11T14:24:30.198Z,79.33
2023-01-11T14:27:25.308Z,79.18
2023-01-11T14:30:19.381Z,79.31
2023-01-11T14:33:19.987Z,78.22
2023-01-11T14:36:19.709Z,77.52
2023-01-11T14:39:18.509Z,77.39
2023-01-11T14:41:57.174Z,77.15
2023-01-11T14:44:50.060Z,77.43
2023-01-11T14:47:35.582Z,77.32
2023-01-11T14:50:11.081Z,78.61
2023-01-11T14:52:40.832Z,78.59
2023-01-11T14:55:16.733Z,79.19
2023-01-11T14:57:59.011Z,79.55
2023-01-11T15:00:25.427Z,80.22
2023-01-11T15:02:59.406Z,80.65
2023-01-11T15:05:32.700Z,80.46
2023-01-11T15:08:14.476Z,81.32
2023-01-11T15:10:47.135Z,80.27
2023-01-11T15:13:19.696Z,80.36
2023-01-11T15:16:05.143Z,78.86
2023-01-11T15:18:31.991Z,78.65
2023-01-11T15:21:04.802Z,78.92
2023-01-11T15:23:45.457Z,78.37
2023-01-11T15:26:14.640Z,77.98
2023-01-11T15:28:58.063Z,78.43
2023-01-11T15:31:53.747Z,79.16
2023-01-11T15:34:27.177Z,79.00
2023-01-11T15:37:13.903Z,78.82
2023-01-11T15:39:45.500Z,79.32
2023-01-11T15:42:17.745Z,79.74
2023-01-11T15:44:56.631Z,79.44
2023-01-11T15:47:50.432Z,79.86
2023-01-11T15:51:07.582Z,79.55
2023-01-11T15:54:10.652Z,79.87
2023-01-11T15:57:14.294Z,80.17
2023-01-11T15:59:56.998Z,79.80
2023-01-11T16:02:45.494Z,81.01
2023-01-11T16:05:17.919Z,80.26
2023-01-11T16:08:07.589Z,80.89
2023-01-11T16:10:57.316Z,80.78
2023-01-11T16:13:29.664Z,80.19
2023-01-11T16:16:20.102Z,80.87
2023-01-11T16:19:07.994Z,80.80
2023-01-11T16:21:38.944Z,80.32
2023-01-11T16:24:13.774Z,80.32
2023-01-11T16:26:41.301Z,80.80
2023-01-11T16:29:14.095Z,80.75
2023-01-11T16:32:18.211Z,80.83
2023-01-11T16:34:47.075Z,80.15
2023-01-11T16:37:19.397Z,81.04
2023-01-11T16:39:49.291Z,81.03
2023-01-11T16:42:15.913Z,81.12
2023-01-11T16:44:59.520Z,81.51
2023-01-11T16:47:26.067Z,81.62
2023-01-11T16:50:14.061Z,82.11
2023-01-11T16:52:53.223Z,82.20
2023-01-11T16:55:30.950Z,82.24
2023-01-11T16:58:00.957Z,81.85
2023-01-11T17:00:32.461Z,81.68
2023-01-11T17:03:22.178Z,81.13
2023-01-11T17:06:08.372Z,81.16
2023-01-11T17:08:36.193Z,80.97
2023-01-11T17:11:10.625Z,81.38
2023-01-11T17:14:14.294Z,81.93
2023-01-11T17:16:50.527Z,82.04
2023-01-11T17:19:23.981Z,82.01
2023-01-11T17:21:52.936Z,82.15
2023-01-11T17:24:26.006Z,82.75
2023-01-11T17:27:00.466Z,83.44
2023-01-11T17:29:37.907Z,83.20
2023-01-11T17:32:07.521Z,83.59
2023-01-11T17:34:37.016Z,83.25
2023-01-11T17:37:10.414Z,83.77
2023-01-11T17:39:42.753Z,84.02
2023-01-11T17:42:31.389Z,83.94
2023-01-11T17:45:13.849Z,84.26
2023-01-11T17:47:46.566Z,84.64
2023-01-11T17:50:31.693Z,84.84
2023-01-11T17:53:26.658Z,85.24
2023-01-11T17:55:55.703Z,85.78
2023-01-11T17:58:30.393Z,86.10
2023-01-11T18:01:09.686Z,86.32
2023-01-11T18:03:45.452Z,86.56
2023-01-11T18:06:18.650Z,86.56
2023-01-11T18:08:48.468Z,86.50
2023-01-11T18:11:23.921Z,86.62
2023-01-11T18:13:56.879Z,87.18
2023-01-11T18:16:24.091Z,86.64
2023-01-11T18:18:52.158Z,86.77
2023-01-11T18:21:40.254Z,86.65
2023-01-11T18:24:12.721Z,85.94
2023-01-11T18:26:45.516Z,86.14
2023-01-11T18:29:20.277Z,86.40
2023-01-11T18:31:46.815Z,86.11
2023-01-11T18:34:13.317Z,86.08
2023-01-11T18:36:39.784Z,85.95
2023-01-11T18:39:11.346Z,85.61
2023-01-11T18:41:58.079Z,85.68
2023-01-11T18:44:25.075Z,85.13
2023-01-11T18:46:51.703Z,85.30
2023-01-11T18:49:18.170Z,85.44
2023-01-11T18:51:45.199Z,85.42
2023-01-11T18:54:16.925Z,85.08
2023-01-11T18:56:44.033Z,85.19
2023-01-11T18:59:10.547Z,84.97
2023-01-11T19:01:54.018Z,84.88
2023-01-11T19:04:24.843Z,85.33
2023-01-11T19:06:52.269Z,85.07
2023-01-11T19:09:18.907Z,85.20
2023-01-11T19:11:45.453Z,84.83
2023-01-11T19:14:12.040Z,85.09
2023-01-11T19:16:38.585Z,85.40
2023-01-11T19:19:05.111Z,84.82
2023-01-11T19:21:31.642Z,84.64
2023-01-11T19:23:58.505Z,84.74
2023-01-11T19:26:27.594Z,84.74
2023-01-11T19:28:54.196Z,84.51
2023-01-11T19:31:20.717Z,84.65
2023-01-11T19:33:47.684Z,84.52
2023-01-11T19:36:14.176Z,83.97
2023-01-11T19:38:40.706Z,83.94
2023-01-11T19:41:09.080Z,83.96
2023-01-11T19:43:36.286Z,84.09
2023-01-11T19:46:03.922Z,84.22
2023-01-11T19:48:33.085Z,83.81
2023-01-11T19:51:04.477Z,84.51
2023-01-11T19:53:32.203Z,85.45
2023-01-11T19:56:03.179Z,86.92
2023-01-11T19:58:30.105Z,87.87
2023-01-11T20:00:56.782Z,88.18
2023-01-11T20:03:23.595Z,89.04
2023-01-11T20:05:50.392Z,89.39
2023-01-11T20:08:17.234Z,89.51
2023-01-11T20:10:43.773Z,90.32
2023-01-11T20:13:10.289Z,91.14
2023-01-11T20:15:38.564Z,91.66
2023-01-11T20:18:05.194Z,92.44
2023-01-11T20:20:31.759Z,92.39
2023-01-11T20:22:58.302Z,92.97
2023-01-11T20:25:24.889Z,93.42
2023-01-11T20:27:51.491Z,93.23
2023-01-11T20:30:17.994Z,93.25
2023-01-11T20:32:45.549Z,93.35
2023-01-11T20:35:12.093Z,93.82
2023-01-11T20:37:38.699Z,93.46
2023-01-11T20:40:05.762Z,94.32
2023-01-11T20:42:32.279Z,94.13
2023-01-11T20:44:58.820Z,94.88
2023-01-11T20:47:25.332Z,95.11
2023-01-11T20:49:51.821Z,95.78
2023-01-11T20:52:18.295Z,95.39
2023-01-11T20:54:44.816Z,95.75
2023-01-11T20:57:12.880Z,96.16
2023-01-11T20:59:39.513Z,97.12
2023-01-11T21:02:07.485Z,96.76
2023-01-11T21:04:35.653Z,97.39
2023-01-11T21:07:02.643Z,97.56
2023-01-11T21:09:29.235Z,97.43
2023-01-11T21:11:55.756Z,97.31
2023-01-11T21:14:22.534Z,97.59
2023-01-11T21:16:49.282Z,97.55
2023-01-11T21:19:16.244Z,97.65
2023-01-11T21:21:43.349Z,97.70
2023-01-11T21:24:13.645Z,97.53
2023-01-11T21:26:42.151Z,97.59
2023-01-11T21:29:10.315Z,97.76
2023-01-11T21:31:37.690Z,97.85
2023-01-11T21:34:04.640Z,97.46
2023-01-11T21:36:31.601Z,97.40
2023-01-11T21:38:59.376Z,97.63
2023-01-11T21:41:47.248Z,97.67
2023-01-11T21:44:15.111Z,97.15
2023-01-11T21:46:41.927Z,96.60
2023-01-11T21:49:09.282Z,96.75
2023-01-11T21:51:36.116Z,96.21
2023-01-11T21:54:07.883Z,96.21
2023-01-11T21:56:35.070Z,96.02
2023-01-11T21:59:01.961Z,95.97
2023-01-11T22:01:29.086Z,95.65
2023-01-11T22:03:56.237Z,96.20
2023-01-11T22:06:23.416Z,96.43
2023-01-11T22:08:50.079Z,96.01
2023-01-11T22:11:17.222Z,96.09
2023-01-11T22:13:43.872Z,95.92
2023-01-11T22:16:16.039Z,96.17
2023-01-11T22:18:43.386Z,95.74
2023-01-11T22:21:14.851Z,95.52
2023-01-11T22:23:41.670Z,95.23
2023-01-11T22:26:13.999Z,94.77
2023-01-11T22:29:00.266Z,95.15
2023-01-11T22:31:28.658Z,94.55
2023-01-11T22:33:56.035Z,95.05
2023-01-11T22:36:24.238Z,94.29
2023-01-11T22:38:51.531Z,93.58
2023-01-11T22:41:18.341Z,93.20
2023-01-11T22:43:45.950Z,93.46
2023-01-11T22:46:17.829Z,93.26
2023-01-11T22:48:44.599Z,93.58
2023-01-11T22:51:11.463Z,93.10
2023-01-11T22:53:42.784Z,93.23
2023-01-11T22:56:11.451Z,92.77
2023-01-11T22:58:38.495Z,92.57
2023-01-11T23:01:11.860Z,93.70
2023-01-11T23:03:39.146Z,93.45
2023-01-11T23:06:06.214Z,94.15
2023-01-11T23:08:43.211Z,94.86
2023-01-11T23:11:13.192Z,95.53
2023-01-11T23:14:01.941Z,96.34
2023-01-11T23:16:28.754Z,97.03
2023-01-11T23:18:55.802Z,97.62
2023-01-11T23:21:22.401Z,97.96
2023-01-11T23:23:48.929Z,98.91
2023-01-11T23:26:18.212Z,99.54
2023-01-11T23:28:45.826Z,100.00
2023-01-11T23:31:16.573Z,100.00
2023-01-11T23:33:47.376Z,100.00
2023-01-11T23:36:15.328Z,100.00
2023-01-11T23:38:42.111Z,100.00
2023-01-11T23:41:29.706Z,100.00
2023-01-11T23:43:56.864Z,100.00
2023-01-11T23:46:42.578Z,100.00
2023-01-11T23:49:10.598Z,100.00
2023-01-11T23:51:37.929Z,100.00
2023-01-11T23:54:05.560Z,100.00
2023-01-11T23:56:33.249Z,100.00
2023-01-11T23:59:00.447Z,100.00
